createdAt,value
2023-02-15T00:00:20.343Z,92.83
2023-02-15T00:02:48.888Z,91.81
2023-02-15T00:05:17.570Z,93.69
2023-02-15T00:07:46.098Z,93.08
2023-02-15T00:10:15.092Z,92.56
2023-02-15T00:12:45.614Z,91.75
2023-02-15T00:15:14.175Z,92.27
2023-02-15T00:17:42.707Z,92.83
2023-02-15T00:20:11.945Z,92.45
2023-02-15T00:22:40.574Z,92.79
2023-02-15T00:25:09.339Z,92.82
2023-02-15T00:27:37.861Z,92.70
2023-02-15T00:30:09.059Z,92.40
2023-02-15T00:32:37.605Z,92.94
2023-02-15T00:35:07.857Z,92.73
2023-02-15T00:37:36.407Z,92.79
2023-02-15T00:40:05.720Z,92.69
2023-02-15T00:42:34.253Z,92.01
2023-02-15T00:45:02.760Z,92.39
2023-02-15T00:47:32.636Z,92.52
2023-02-15T00:50:01.108Z,92.88
2023-02-15T00:52:29.639Z,90.22
2023-02-15T00:54:58.144Z,91.42
2023-02-15T00:57:26.774Z,93.64
2023-02-15T00:59:55.310Z,93.79
2023-02-15T01:02:23.856Z,91.94
2023-02-15T01:04:53.715Z,93.82
2023-02-15T01:07:22.289Z,94.04
2023-02-15T01:09:50.853Z,92.69
2023-02-15T01:12:19.411Z,93.40
2023-02-15T01:14:48.014Z,93.04
2023-02-15T01:17:16.582Z,93.03
2023-02-15T01:19:45.431Z,92.99
2023-02-15T01:22:15.347Z,92.70
2023-02-15T01:24:43.913Z,92.52
2023-02-15T01:27:12.526Z,92.72
2023-02-15T01:29:41.101Z,92.30
2023-02-15T01:32:09.819Z,92.34
2023-02-15T01:34:38.539Z,92.54
2023-02-15T01:37:07.232Z,92.93
2023-02-15T01:39:37.190Z,93.39
2023-02-15T01:42:05.832Z,92.75
2023-02-15T01:44:52.653Z,93.67
2023-02-15T01:50:03.732Z,92.52
2023-02-15T01:52:32.678Z,92.78
2023-02-15T01:55:03.605Z,92.91
2023-02-15T01:57:32.499Z,93.19
2023-02-15T02:00:04.475Z,93.24
2023-02-15T02:02:33.468Z,91.48
2023-02-15T02:05:07.409Z,93.18
2023-02-15T02:07:40.403Z,92.48
2023-02-15T02:10:15.801Z,92.01
2023-02-15T02:12:47.471Z,92.77
2023-02-15T02:15:17.112Z,92.64
2023-02-15T02:17:57.270Z,92.37
2023-02-15T02:21:00.501Z,92.71
2023-02-15T02:23:45.482Z,92.79
2023-02-15T02:27:04.854Z,92.84
2023-02-15T02:30:18.001Z,92.61
2023-02-15T02:33:16.449Z,92.10
2023-02-15T02:35:51.450Z,92.50
2023-02-15T02:38:27.731Z,92.16
2023-02-15T02:41:06.061Z,92.64
2023-02-15T02:43:42.483Z,92.24
2023-02-15T02:46:19.081Z,91.95
2023-02-15T02:48:50.486Z,92.00
2023-02-15T02:51:22.472Z,92.57
2023-02-15T02:53:56.540Z,90.87
2023-02-15T02:56:29.890Z,92.38
2023-02-15T02:59:04.582Z,92.49
2023-02-15T03:01:40.079Z,89.92
2023-02-15T03:04:15.715Z,92.76
2023-02-15T03:06:50.488Z,92.09
2023-02-15T03:09:24.983Z,92.28
2023-02-15T03:11:54.378Z,91.47
2023-02-15T03:14:23.206Z,89.46
2023-02-15T03:16:53.789Z,91.43
2023-02-15T03:19:29.167Z,91.47
2023-02-15T03:22:10.367Z,92.11
2023-02-15T03:24:43.025Z,92.08
2023-02-15T03:27:18.620Z,91.75
2023-02-15T03:29:49.390Z,91.97
2023-02-15T03:32:19.314Z,92.19
2023-02-15T03:34:49.450Z,92.43
2023-02-15T03:37:27.636Z,91.71
2023-02-15T03:40:20.866Z,91.68
2023-02-15T03:43:00.761Z,92.15
2023-02-15T03:45:33.048Z,91.74
2023-02-15T03:48:03.951Z,91.87
2023-02-15T03:50:55.879Z,92.02
2023-02-15T03:53:26.389Z,91.93
2023-02-15T03:55:57.722Z,91.77
2023-02-15T03:58:43.808Z,91.88
2023-02-15T04:01:36.064Z,91.88
2023-02-15T04:04:11.265Z,91.28
2023-02-15T04:06:41.201Z,91.90
2023-02-15T04:09:26.936Z,91.64
2023-02-15T04:11:55.504Z,91.57
2023-02-15T04:14:41.329Z,91.43
2023-02-15T04:17:11.036Z,91.20
2023-02-15T04:19:57.178Z,91.34
2023-02-15T04:22:44.683Z,91.41
2023-02-15T04:25:13.601Z,91.76
2023-02-15T04:27:44.039Z,91.62
2023-02-15T04:30:14.269Z,91.70
2023-02-15T04:32:42.991Z,92.06
2023-02-15T04:35:12.300Z,91.34
2023-02-15T04:37:43.179Z,91.68
2023-02-15T04:40:15.578Z,92.09
2023-02-15T04:42:45.466Z,92.08
2023-02-15T04:45:14.062Z,91.59
2023-02-15T04:47:43.122Z,91.62
2023-02-15T04:50:12.606Z,90.55
2023-02-15T04:52:42.624Z,90.79
2023-02-15T04:55:11.192Z,88.79
2023-02-15T04:57:39.864Z,92.92
2023-02-15T05:00:10.634Z,91.76
2023-02-15T05:02:39.208Z,92.05
2023-02-15T05:05:08.269Z,92.23
2023-02-15T05:07:36.922Z,92.63
2023-02-15T05:10:07.863Z,91.56
2023-02-15T05:12:36.478Z,91.75
2023-02-15T05:15:05.228Z,91.46
2023-02-15T05:17:33.778Z,91.56
2023-02-15T05:20:02.360Z,91.60
2023-02-15T05:22:30.950Z,91.50
2023-02-15T05:25:16.953Z,91.53
2023-02-15T05:28:05.309Z,91.41
2023-02-15T05:30:34.342Z,91.55
2023-02-15T05:33:03.016Z,91.67
2023-02-15T05:35:31.570Z,91.52
2023-02-15T05:38:00.146Z,91.72
2023-02-15T05:40:28.811Z,91.23
2023-02-15T05:42:58.831Z,91.41
2023-02-15T05:45:27.678Z,91.35
2023-02-15T05:47:56.497Z,91.84
2023-02-15T05:50:25.123Z,90.41
2023-02-15T05:52:53.765Z,91.44
2023-02-15T05:55:22.417Z,91.55
2023-02-15T05:57:51.569Z,91.54
2023-02-15T06:00:21.989Z,91.22
2023-02-15T06:02:50.551Z,91.45
2023-02-15T06:05:19.402Z,91.30
2023-02-15T06:07:48.248Z,91.63
2023-02-15T06:10:17.038Z,91.48
2023-02-15T06:12:46.732Z,91.15
2023-02-15T06:15:15.486Z,91.24
2023-02-15T06:17:45.631Z,91.42
2023-02-15T06:20:15.009Z,91.34
2023-02-15T06:22:43.616Z,91.30
2023-02-15T06:25:12.286Z,90.71
2023-02-15T06:27:43.199Z,89.37
2023-02-15T06:30:13.668Z,90.18
2023-02-15T06:32:42.607Z,91.53
2023-02-15T06:35:12.598Z,90.96
2023-02-15T06:37:41.373Z,92.48
2023-02-15T06:40:11.209Z,89.10
2023-02-15T06:42:39.812Z,92.38
2023-02-15T06:45:08.917Z,87.53
2023-02-15T06:47:37.598Z,93.08
2023-02-15T06:50:07.519Z,92.52
2023-02-15T06:52:37.477Z,92.24
2023-02-15T06:55:06.560Z,88.69
2023-02-15T06:57:35.353Z,94.38
2023-02-15T07:00:05.902Z,91.88
2023-02-15T07:02:34.621Z,91.12
2023-02-15T07:05:03.779Z,93.89
2023-02-15T07:07:32.406Z,93.25
2023-02-15T07:10:02.300Z,90.93
2023-02-15T07:12:46.717Z,91.47
2023-02-15T07:15:18.435Z,95.73
2023-02-15T07:17:47.029Z,92.73
2023-02-15T07:20:17.705Z,89.70
2023-02-15T07:22:46.629Z,94.62
2023-02-15T07:25:17.104Z,96.27
2023-02-15T07:27:46.032Z,89.72
2023-02-15T07:30:18.427Z,94.96
2023-02-15T07:33:05.685Z,91.93
2023-02-15T07:35:34.633Z,98.65
2023-02-15T07:38:03.482Z,94.17
2023-02-15T07:40:33.424Z,93.02
2023-02-15T07:43:01.988Z,94.56
2023-02-15T07:45:30.642Z,95.08
2023-02-15T07:47:59.178Z,95.69
2023-02-15T07:50:27.753Z,96.23
2023-02-15T07:52:56.308Z,94.64
2023-02-15T07:55:25.709Z,93.19
2023-02-15T07:57:55.937Z,88.74
2023-02-15T08:00:26.052Z,95.51
2023-02-15T08:03:11.096Z,92.09
2023-02-15T08:05:39.942Z,92.94
2023-02-15T08:08:08.921Z,92.15
2023-02-15T08:10:56.074Z,92.38
2023-02-15T08:13:26.022Z,89.00
2023-02-15T08:15:54.773Z,93.28
2023-02-15T08:18:23.353Z,91.41
2023-02-15T08:20:52.385Z,92.32
2023-02-15T08:23:20.933Z,93.80
2023-02-15T08:25:49.511Z,89.35
2023-02-15T08:28:18.041Z,89.69
2023-02-15T08:30:47.984Z,95.58
2023-02-15T08:33:18.916Z,96.92
2023-02-15T08:35:48.036Z,94.19
2023-02-15T08:38:16.767Z,99.15
2023-02-15T08:40:45.313Z,94.18
2023-02-15T08:43:13.866Z,95.54
2023-02-15T08:45:42.491Z,92.72
2023-02-15T08:48:12.397Z,94.11
2023-02-15T08:50:40.992Z,98.64
2023-02-15T08:53:09.577Z,91.88
2023-02-15T08:55:38.139Z,94.27
2023-02-15T08:58:06.708Z,93.36
2023-02-15T09:00:35.307Z,93.06
2023-02-15T09:03:03.857Z,94.47
2023-02-15T09:05:33.796Z,93.28
2023-02-15T09:08:02.348Z,92.46
2023-02-15T09:10:30.940Z,93.41
2023-02-15T09:12:59.530Z,93.42
2023-02-15T09:15:28.102Z,92.87
2023-02-15T09:17:56.699Z,95.74
2023-02-15T09:20:25.393Z,95.22
2023-02-15T09:22:58.527Z,90.92
2023-02-15T09:25:28.568Z,90.95
2023-02-15T09:27:57.459Z,90.06
2023-02-15T09:30:26.163Z,93.97
2023-02-15T09:32:54.824Z,90.61
2023-02-15T09:35:23.365Z,92.53
2023-02-15T09:37:51.956Z,91.76
2023-02-15T09:40:22.229Z,88.10
2023-02-15T09:43:31.253Z,87.39
2023-02-15T09:46:20.819Z,88.51
2023-02-15T09:48:56.042Z,87.63
2023-02-15T09:52:00.176Z,88.38
2023-02-15T09:54:45.313Z,90.00
2023-02-15T09:57:25.675Z,84.41
2023-02-15T10:00:05.180Z,78.92
2023-02-15T10:02:50.968Z,80.59
2023-02-15T10:05:34.193Z,79.08
2023-02-15T10:08:26.721Z,77.79
2023-02-15T10:11:26.275Z,76.94
2023-02-15T10:14:11.378Z,77.28
2023-02-15T10:16:48.446Z,76.15
2023-02-15T10:19:28.550Z,76.11
2023-02-15T10:22:08.982Z,74.88
2023-02-15T10:25:02.811Z,74.91
2023-02-15T10:27:35.666Z,76.94
2023-02-15T10:30:11.790Z,72.04
2023-02-15T10:32:48.951Z,72.94
2023-02-15T10:35:27.415Z,77.46
2023-02-15T10:38:21.596Z,73.41
2023-02-15T10:41:02.794Z,72.84
2023-02-15T10:44:09.831Z,74.47
2023-02-15T10:46:57.961Z,74.32
2023-02-15T10:49:44.471Z,74.33
2023-02-15T10:52:30.368Z,75.67
2023-02-15T10:55:07.206Z,75.53
2023-02-15T10:57:45.031Z,74.77
2023-02-15T11:00:21.356Z,76.46
2023-02-15T11:03:09.283Z,77.87
2023-02-15T11:05:50.185Z,76.53
2023-02-15T11:08:20.128Z,77.62
2023-02-15T11:10:53.637Z,76.50
2023-02-15T11:13:26.499Z,76.29
2023-02-15T11:15:58.903Z,76.88
2023-02-15T11:18:34.831Z,76.04
2023-02-15T11:21:09.031Z,74.60
2023-02-15T11:23:42.735Z,75.13
2023-02-15T11:26:18.094Z,75.07
2023-02-15T11:28:53.210Z,74.34
2023-02-15T11:31:25.164Z,75.40
2023-02-15T11:33:59.241Z,74.74
2023-02-15T11:36:31.230Z,78.88
2023-02-15T11:39:04.765Z,75.08
2023-02-15T11:41:39.720Z,74.84
2023-02-15T11:44:16.269Z,74.35
2023-02-15T11:46:45.224Z,73.20
2023-02-15T11:49:26.280Z,74.58
2023-02-15T11:51:55.986Z,75.81
2023-02-15T11:54:30.271Z,75.31
2023-02-15T11:57:01.831Z,74.02
2023-02-15T11:59:35.253Z,73.11
2023-02-15T12:02:03.824Z,74.85
2023-02-15T12:04:40.449Z,73.35
2023-02-15T12:07:18.908Z,72.95
2023-02-15T12:09:51.560Z,71.54
2023-02-15T12:12:25.131Z,75.09
2023-02-15T12:14:55.842Z,70.97
2023-02-15T12:17:28.260Z,74.95
2023-02-15T12:19:59.840Z,70.47
2023-02-15T12:22:31.470Z,70.91
2023-02-15T12:25:03.381Z,71.81
2023-02-15T12:27:35.568Z,69.58
2023-02-15T12:30:09.584Z,73.34
2023-02-15T12:32:50.389Z,74.68
2023-02-15T12:35:29.448Z,72.13
2023-02-15T12:38:02.004Z,72.62
2023-02-15T12:40:31.802Z,69.11
2023-02-15T12:43:00.560Z,67.66
2023-02-15T12:45:31.219Z,70.30
2023-02-15T12:48:26.651Z,68.04
2023-02-15T12:51:11.622Z,68.16
2023-02-15T12:53:40.473Z,66.49
2023-02-15T12:56:11.431Z,65.66
2023-02-15T12:58:41.936Z,65.89
2023-02-15T13:01:16.698Z,67.43
2023-02-15T13:04:00.229Z,66.83
2023-02-15T13:06:33.147Z,65.98
2023-02-15T13:09:11.182Z,65.86
2023-02-15T13:11:40.922Z,66.54
2023-02-15T13:14:22.859Z,66.95
2023-02-15T13:16:55.393Z,67.79
2023-02-15T13:19:33.647Z,68.23
2023-02-15T13:22:08.535Z,67.66
2023-02-15T13:24:41.384Z,70.26
2023-02-15T13:27:16.438Z,66.36
2023-02-15T13:29:48.914Z,69.13
2023-02-15T13:32:28.179Z,66.23
2023-02-15T13:35:00.127Z,67.50
2023-02-15T13:37:52.830Z,66.34
2023-02-15T13:40:26.669Z,65.25
2023-02-15T13:43:00.676Z,66.00
2023-02-15T13:45:40.684Z,67.96
2023-02-15T13:48:21.052Z,63.94
2023-02-15T13:51:09.573Z,63.91
2023-02-15T13:53:57.044Z,67.39
2023-02-15T13:56:35.538Z,68.77
2023-02-15T13:59:22.689Z,65.42
2023-02-15T14:01:59.639Z,64.56
2023-02-15T14:04:56.995Z,63.46
2023-02-15T14:07:46.715Z,64.54
2023-02-15T14:10:37.102Z,61.66
2023-02-15T14:13:57.764Z,60.64
2023-02-15T14:16:35.670Z,62.17
2023-02-15T14:19:13.621Z,61.08
2023-02-15T14:21:49.741Z,65.22
2023-02-15T14:24:31.500Z,68.06
2023-02-15T14:27:15.564Z,69.68
2023-02-15T14:29:53.088Z,66.26
2023-02-15T14:32:28.883Z,65.33
2023-02-15T14:35:00.474Z,65.22
2023-02-15T14:37:41.995Z,63.74
2023-02-15T14:40:36.646Z,64.47
2023-02-15T14:43:14.041Z,64.23
2023-02-15T14:45:58.496Z,64.33
2023-02-15T14:48:32.374Z,65.01
2023-02-15T14:51:01.698Z,66.43
2023-02-15T14:53:40.831Z,69.94
2023-02-15T14:56:22.349Z,69.16
2023-02-15T14:59:15.424Z,67.48
2023-02-15T15:01:52.631Z,67.76
2023-02-15T15:04:29.509Z,66.50
2023-02-15T15:07:11.275Z,71.54
2023-02-15T15:09:42.498Z,71.86
2023-02-15T15:12:40.071Z,68.22
2023-02-15T15:15:15.707Z,70.90
2023-02-15T15:18:01.973Z,72.73
2023-02-15T15:20:51.258Z,76.88
2023-02-15T15:23:45.262Z,75.96
2023-02-15T15:26:34.232Z,77.56
2023-02-15T15:29:03.833Z,74.32
2023-02-15T15:31:45.980Z,75.12
2023-02-15T15:34:47.029Z,78.45
2023-02-15T15:38:00.801Z,80.54
2023-02-15T15:40:55.203Z,78.60
2023-02-15T15:43:51.161Z,72.35
2023-02-15T15:46:59.474Z,73.44
2023-02-15T15:49:33.468Z,75.88
2023-02-15T15:52:04.552Z,72.81
2023-02-15T15:54:33.201Z,80.16
2023-02-15T15:57:05.555Z,74.41
2023-02-15T15:59:36.569Z,78.61
2023-02-15T16:02:14.067Z,78.03
2023-02-15T16:04:42.623Z,76.66
2023-02-15T16:07:27.514Z,80.77
2023-02-15T16:10:01.276Z,82.65
2023-02-15T16:12:32.523Z,82.75
2023-02-15T16:15:06.633Z,77.81
2023-02-15T16:17:36.638Z,77.87
2023-02-15T16:20:09.919Z,84.78
2023-02-15T16:22:40.550Z,81.57
2023-02-15T16:25:31.801Z,86.50
2023-02-15T16:28:08.119Z,84.95
2023-02-15T16:30:38.408Z,86.12
2023-02-15T16:33:10.910Z,87.41
2023-02-15T16:35:41.091Z,87.78
2023-02-15T16:38:12.825Z,87.97
2023-02-15T16:40:53.376Z,85.90
2023-02-15T16:43:28.685Z,84.74
2023-02-15T16:46:05.782Z,81.67
2023-02-15T16:48:41.581Z,83.72
2023-02-15T16:51:11.001Z,84.26
2023-02-15T16:53:41.696Z,86.42
2023-02-15T16:56:10.484Z,85.96
2023-02-15T16:58:43.553Z,86.95
2023-02-15T17:01:15.489Z,86.93
2023-02-15T17:03:50.481Z,80.93
2023-02-15T17:06:26.764Z,87.81
2023-02-15T17:09:04.651Z,85.00
2023-02-15T17:11:38.067Z,87.53
2023-02-15T17:14:16.421Z,87.14
2023-02-15T17:16:50.274Z,85.57
2023-02-15T17:19:24.244Z,87.23
2023-02-15T17:21:55.925Z,87.60
2023-02-15T17:24:34.747Z,83.58
2023-02-15T17:27:07.349Z,84.97
2023-02-15T17:29:39.483Z,86.79
2023-02-15T17:32:18.175Z,87.66
2023-02-15T17:34:52.360Z,87.94
2023-02-15T17:37:29.964Z,87.03
2023-02-15T17:40:00.472Z,81.69
2023-02-15T17:42:29.228Z,85.79
2023-02-15T17:44:57.797Z,84.33
2023-02-15T17:47:30.105Z,86.31
2023-02-15T17:50:01.289Z,87.52
2023-02-15T17:52:31.643Z,82.64
2023-02-15T17:55:18.240Z,87.76
2023-02-15T17:57:46.846Z,86.45
2023-02-15T18:00:34.546Z,82.84
2023-02-15T18:03:20.806Z,88.47
2023-02-15T18:06:08.118Z,89.46
2023-02-15T18:08:53.862Z,87.82
2023-02-15T18:11:40.795Z,85.00
2023-02-15T18:14:10.854Z,88.90
2023-02-15T18:16:43.336Z,84.60
2023-02-15T18:19:17.534Z,85.15
2023-02-15T18:21:48.519Z,87.48
2023-02-15T18:24:19.197Z,84.19
2023-02-15T18:26:47.906Z,82.74
2023-02-15T18:29:16.511Z,90.41
2023-02-15T18:31:47.219Z,86.47
2023-02-15T18:34:25.721Z,87.66
2023-02-15T18:36:56.523Z,86.38
2023-02-15T18:39:28.697Z,85.92
2023-02-15T18:41:57.390Z,90.48
2023-02-15T18:44:26.996Z,87.68
2023-02-15T18:46:55.572Z,85.98
2023-02-15T18:49:24.133Z,89.64
2023-02-15T18:51:54.319Z,86.92
2023-02-15T18:54:26.004Z,89.82
2023-02-15T18:56:57.326Z,86.73
2023-02-15T18:59:27.414Z,89.95
2023-02-15T19:01:56.573Z,82.80
2023-02-15T19:04:26.018Z,89.66
2023-02-15T19:06:56.578Z,90.07
2023-02-15T19:09:27.866Z,86.68
2023-02-15T19:11:57.666Z,89.20
2023-02-15T19:14:29.087Z,90.38
2023-02-15T19:16:58.247Z,86.01
2023-02-15T19:19:27.938Z,89.85
2023-02-15T19:21:58.037Z,86.96
2023-02-15T19:24:33.688Z,88.28
2023-02-15T19:27:02.702Z,87.84
2023-02-15T19:29:32.403Z,89.25
2023-02-15T19:32:01.128Z,93.62
2023-02-15T19:34:29.889Z,93.16
2023-02-15T19:37:00.179Z,92.19
2023-02-15T19:39:32.058Z,87.42
2023-02-15T19:42:00.730Z,88.38
2023-02-15T19:44:29.279Z,91.03
2023-02-15T19:46:58.480Z,92.44
2023-02-15T19:49:27.125Z,91.52
2023-02-15T19:51:55.941Z,88.15
2023-02-15T19:54:35.254Z,90.12
2023-02-15T19:57:03.854Z,89.94
2023-02-15T19:59:34.133Z,91.14
2023-02-15T20:02:02.740Z,90.61
2023-02-15T20:04:31.329Z,90.77
2023-02-15T20:07:02.829Z,90.66
2023-02-15T20:09:37.672Z,90.55
2023-02-15T20:12:12.675Z,90.82
2023-02-15T20:14:42.653Z,90.45
2023-02-15T20:17:11.228Z,90.04
2023-02-15T20:19:41.575Z,91.09
2023-02-15T20:22:20.697Z,91.08
2023-02-15T20:24:51.480Z,91.26
2023-02-15T20:27:21.198Z,88.70
2023-02-15T20:29:50.531Z,89.96
2023-02-15T20:32:19.278Z,90.12
2023-02-15T20:34:47.894Z,89.92
2023-02-15T20:37:23.241Z,90.53
2023-02-15T20:39:53.917Z,89.87
2023-02-15T20:42:22.538Z,89.74
2023-02-15T20:44:51.091Z,92.43
2023-02-15T20:47:19.793Z,92.20
2023-02-15T20:49:48.343Z,91.96
2023-02-15T20:52:21.257Z,91.34
2023-02-15T20:54:49.878Z,90.08
2023-02-15T20:57:19.876Z,88.76
2023-02-15T20:59:48.421Z,87.35
2023-02-15T21:02:20.251Z,87.48
2023-02-15T21:04:48.862Z,92.20
2023-02-15T21:07:18.528Z,94.77
2023-02-15T21:09:47.815Z,93.73
2023-02-15T21:12:18.777Z,92.01
2023-02-15T21:14:49.167Z,90.41
2023-02-15T21:17:18.636Z,88.86
2023-02-15T21:19:47.304Z,91.30
2023-02-15T21:22:17.143Z,91.13
2023-02-15T21:24:50.525Z,91.74
2023-02-15T21:27:19.513Z,90.05
2023-02-15T21:29:49.476Z,91.10
2023-02-15T21:32:18.886Z,88.77
2023-02-15T21:34:47.624Z,93.60
2023-02-15T21:37:31.418Z,93.73
2023-02-15T21:40:00.367Z,91.98
2023-02-15T21:42:47.194Z,92.76
2023-02-15T21:45:36.571Z,90.54
2023-02-15T21:48:05.230Z,92.59
2023-02-15T21:50:53.122Z,90.88
2023-02-15T21:53:24.530Z,93.29
2023-02-15T21:55:55.879Z,92.24
2023-02-15T21:58:27.087Z,92.23
2023-02-15T22:00:58.185Z,91.98
2023-02-15T22:03:28.505Z,92.93
2023-02-15T22:05:57.272Z,89.02
2023-02-15T22:08:26.182Z,86.29
2023-02-15T22:10:56.168Z,89.20
2023-02-15T22:13:29.298Z,90.12
2023-02-15T22:15:59.646Z,89.85
2023-02-15T22:18:33.376Z,90.41
2023-02-15T22:21:04.416Z,91.60
2023-02-15T22:23:33.362Z,87.43
2023-02-15T22:26:07.586Z,93.15
2023-02-15T22:28:39.142Z,93.96
2023-02-15T22:31:15.087Z,90.34
2023-02-15T22:33:44.817Z,88.10
2023-02-15T22:36:24.292Z,91.86
2023-02-15T22:38:53.340Z,90.72
2023-02-15T22:41:23.577Z,91.66
2023-02-15T22:43:53.070Z,92.89
2023-02-15T22:46:25.093Z,90.62
2023-02-15T22:48:53.794Z,92.54
2023-02-15T22:51:24.905Z,89.79
2023-02-15T22:53:53.957Z,88.45
2023-02-15T22:56:27.221Z,87.29
2023-02-15T22:59:04.291Z,89.82
2023-02-15T23:01:36.144Z,91.56
2023-02-15T23:04:05.469Z,90.56
2023-02-15T23:06:35.143Z,91.10
2023-02-15T23:09:03.884Z,89.13
2023-02-15T23:11:32.500Z,91.82
2023-02-15T23:14:03.071Z,92.88
2023-02-15T23:16:34.764Z,92.76
2023-02-15T23:19:03.424Z,91.99
2023-02-15T23:21:34.413Z,92.83
2023-02-15T23:24:16.647Z,89.71
2023-02-15T23:26:45.188Z,88.97
2023-02-15T23:29:16.334Z,91.35
2023-02-15T23:31:48.279Z,90.63
2023-02-15T23:34:20.213Z,94.01
2023-02-15T23:36:49.335Z,92.57
2023-02-15T23:39:36.935Z,96.60
2023-02-15T23:42:07.527Z,91.61
2023-02-15T23:44:36.202Z,93.23
2023-02-15T23:47:07.137Z,94.69
2023-02-15T23:49:35.746Z,93.43
2023-02-15T23:52:07.115Z,89.58
2023-02-15T23:54:35.716Z,94.03
2023-02-15T23:57:04.820Z,94.13
2023-02-15T23:59:34.289Z,93.91
